Time;durP1;ratioP1;P1;durP2;ratioP2;P2;SDS_P1;SDS_P2;PMS_P1;PMS_P2;Temp;Humidity;BMP_temperature;BMP_pressure;BME280_temperature;BME280_humidity;BME280_pressure;Samples;Min_cycle;Max_cycle;Signal;HPM_P1;HPM_P2
2023/05/26 00:00:55;;;;;;;14.40;11.07;;;15.20;99.90;;;;;;5045741;28;20048;-78
2023/05/26 00:03:27;;;;;;;11.48;9.27;;;15.30;99.90;;;;;;5038684;28;20037;-78
2023/05/26 00:05:55;;;;;;;10.63;9.05;;;15.20;99.90;;;;;;5037832;28;20049;-77
2023/05/26 00:08:24;;;;;;;9.70;8.63;;;15.30;99.90;;;;;;5038326;28;20151;-77
2023/05/26 00:10:51;;;;;;;13.32;11.00;;;15.30;99.90;;;;;;5039854;28;20039;-77
2023/05/26 00:13:19;;;;;;;12.95;10.77;;;15.30;99.90;;;;;;5038659;28;20091;-77
2023/05/26 00:15:46;;;;;;;11.60;10.40;;;15.30;99.90;;;;;;5039465;28;20044;-78
2023/05/26 00:18:14;;;;;;;9.65;8.55;;;15.30;99.90;;;;;;5039474;28;20046;-78
2023/05/26 00:20:41;;;;;;;14.00;9.48;;;15.30;99.90;;;;;;5027218;28;20085;-78
2023/05/26 00:23:08;;;;;;;11.25;9.05;;;15.30;99.90;;;;;;5045695;28;20059;-76
2023/05/26 00:25:37;;;;;;;11.68;8.80;;;15.40;99.90;;;;;;5016556;28;20060;-79
2023/05/26 00:28:05;;;;;;;11.35;9.25;;;15.40;99.90;;;;;;5036109;28;20041;-78
2023/05/26 00:30:33;;;;;;;11.68;8.35;;;15.40;99.90;;;;;;5033129;28;20053;-79
2023/05/26 00:33:00;;;;;;;13.20;9.63;;;15.40;99.90;;;;;;5035061;28;20043;-76
2023/05/26 00:35:28;;;;;;;9.27;8.35;;;15.30;99.90;;;;;;5023929;28;20056;-79
2023/05/26 00:37:55;;;;;;;10.23;8.80;;;15.30;99.90;;;;;;5057724;28;20611;-78
2023/05/26 00:40:22;;;;;;;11.57;8.80;;;15.40;99.90;;;;;;5057516;28;20044;-78
2023/05/26 00:42:51;;;;;;;11.73;8.73;;;15.40;99.90;;;;;;5050251;28;20817;-76
2023/05/26 00:45:19;;;;;;;13.00;8.77;;;15.40;99.90;;;;;;5044169;28;20048;-79
2023/05/26 00:47:46;;;;;;;12.95;9.05;;;15.40;99.90;;;;;;5041491;28;20057;-77
2023/05/26 00:50:16;;;;;;;11.35;8.15;;;15.30;99.90;;;;;;5039571;28;20542;-78
2023/05/26 00:52:45;;;;;;;11.15;8.68;;;15.30;99.90;;;;;;5038838;28;20045;-77
2023/05/26 00:55:13;;;;;;;10.88;8.73;;;15.30;99.90;;;;;;5059712;28;20127;-76
2023/05/26 00:57:40;;;;;;;12.45;9.10;;;15.30;99.90;;;;;;5050594;28;20077;-79
2023/05/26 01:00:11;;;;;;;10.85;8.50;;;15.30;99.90;;;;;;5039633;28;20053;-78
2023/05/26 01:02:39;;;;;;;10.27;8.77;;;15.30;99.90;;;;;;5039113;28;20056;-78
2023/05/26 01:05:08;;;;;;;12.52;8.90;;;15.30;99.90;;;;;;5039722;28;20083;-78
2023/05/26 01:07:36;;;;;;;9.52;8.52;;;15.40;99.90;;;;;;5040004;28;20044;-77
2023/05/26 01:10:05;;;;;;;11.45;7.88;;;15.40;99.90;;;;;;5058983;28;20304;-78
2023/05/26 01:12:39;;;;;;;11.68;8.82;;;15.40;99.90;;;;;;5053975;28;20492;-77
2023/05/26 01:15:13;;;;;;;13.50;8.45;;;15.40;99.90;;;;;;5053949;28;20554;-78
2023/05/26 01:17:45;;;;;;;12.93;8.93;;;15.30;99.90;;;;;;5070956;28;20102;-77
2023/05/26 01:20:22;;;;;;;11.55;10.25;;;15.20;99.90;;;;;;5071156;28;20123;-78
2023/05/26 01:23:15;;;;;;;13.77;10.40;;;15.20;99.90;;;;;;5070281;28;20049;-79
2023/05/26 01:25:56;;;;;;;12.75;10.15;;;15.20;99.90;;;;;;5069145;28;20051;-77
2023/05/26 01:28:29;;;;;;;10.95;9.68;;;15.30;99.90;;;;;;5070298;28;20045;-78
2023/05/26 01:30:59;;;;;;;11.25;9.73;;;15.30;99.90;;;;;;5070982;28;20580;-79
2023/05/26 01:33:27;;;;;;;12.32;10.60;;;15.40;99.90;;;;;;5079025;28;20040;-76
2023/05/26 01:35:55;;;;;;;12.90;10.18;;;15.40;99.90;;;;;;5068813;28;20065;-76
2023/05/26 01:38:22;;;;;;;12.77;10.48;;;15.40;99.90;;;;;;5052620;28;20531;-78
2023/05/26 01:40:57;;;;;;;12.57;11.07;;;15.50;99.90;;;;;;5071830;28;20050;-75
2023/05/26 01:43:36;;;;;;;12.70;11.02;;;15.50;99.90;;;;;;5057864;28;20048;-77
2023/05/26 01:46:08;;;;;;;13.15;10.18;;;15.50;99.90;;;;;;5088201;28;20354;-79
2023/05/26 01:48:37;;;;;;;10.45;8.95;;;15.50;99.90;;;;;;5068878;28;20079;-76
2023/05/26 01:51:06;;;;;;;11.23;9.30;;;15.50;99.90;;;;;;5074067;28;20052;-77
2023/05/26 01:53:38;;;;;;;10.85;8.70;;;15.50;99.90;;;;;;5070560;28;20060;-77
2023/05/26 01:56:08;;;;;;;9.20;8.02;;;15.50;99.90;;;;;;5079328;28;20040;-77
2023/05/26 01:58:38;;;;;;;10.45;8.82;;;15.50;99.90;;;;;;5039239;28;20053;-77
2023/05/26 02:01:06;;;;;;;10.00;8.90;;;15.60;99.90;;;;;;5022388;28;20045;-76
2023/05/26 02:03:35;;;;;;;11.52;9.20;;;15.60;99.90;;;;;;5030820;28;20413;-78
2023/05/26 02:06:04;;;;;;;8.75;7.85;;;15.60;99.90;;;;;;5035297;28;20090;-78
2023/05/26 02:08:33;;;;;;;10.48;8.75;;;15.60;99.90;;;;;;5041254;28;20423;-78
2023/05/26 02:11:00;;;;;;;9.77;8.77;;;15.60;99.90;;;;;;5057124;28;20114;-77
2023/05/26 02:13:27;;;;;;;10.02;8.32;;;15.60;99.90;;;;;;5041577;28;20712;-76
2023/05/26 02:15:57;;;;;;;10.85;9.25;;;15.60;99.90;;;;;;5041990;28;20435;-77
2023/05/26 02:18:24;;;;;;;10.82;9.20;;;15.60;99.90;;;;;;5044695;28;20052;-78
2023/05/26 02:20:52;;;;;;;9.95;8.75;;;15.60;99.90;;;;;;5059908;28;20048;-77
2023/05/26 02:23:20;;;;;;;11.40;8.73;;;15.50;99.90;;;;;;5040554;28;20141;-78
2023/05/26 02:25:47;;;;;;;12.70;8.65;;;15.50;99.90;;;;;;5060736;28;20063;-78
2023/05/26 02:28:14;;;;;;;11.52;9.32;;;15.50;99.90;;;;;;5058841;28;20044;-77
2023/05/26 02:30:42;;;;;;;10.00;8.63;;;15.40;99.90;;;;;;5059220;28;20040;-77
2023/05/26 02:33:12;;;;;;;10.45;9.35;;;15.30;99.90;;;;;;5066887;28;20040;-76
2023/05/26 02:35:41;;;;;;;13.23;9.88;;;15.30;99.90;;;;;;5066460;28;20423;-78
2023/05/26 02:38:09;;;;;;;12.45;9.57;;;15.30;99.90;;;;;;5058766;28;20049;-77
2023/05/26 02:40:36;;;;;;;12.45;9.65;;;15.20;99.90;;;;;;5058919;28;20127;-78
2023/05/26 02:43:04;;;;;;;12.30;9.38;;;15.30;99.90;;;;;;5041459;28;20040;-78
2023/05/26 02:45:31;;;;;;;12.68;9.45;;;15.20;99.90;;;;;;5059926;28;20094;-78
2023/05/26 02:47:59;;;;;;;12.93;9.32;;;15.10;99.90;;;;;;5059577;28;20563;-78
2023/05/26 02:50:28;;;;;;;13.38;10.35;;;15.00;99.90;;;;;;5059775;28;20040;-77
2023/05/26 02:52:55;;;;;;;11.63;9.43;;;15.00;99.90;;;;;;5041257;28;20044;-77
2023/05/26 02:55:24;;;;;;;11.07;9.73;;;14.90;99.90;;;;;;5058713;28;20549;-76
2023/05/26 02:57:52;;;;;;;10.68;9.50;;;14.80;99.90;;;;;;5041637;28;20392;-77
2023/05/26 03:00:20;;;;;;;11.07;9.85;;;14.80;99.90;;;;;;5040725;28;20044;-77
2023/05/26 03:02:48;;;;;;;11.60;10.25;;;14.70;99.90;;;;;;5041440;28;20056;-77
2023/05/26 03:05:15;;;;;;;15.52;10.50;;;14.80;99.90;;;;;;5039371;28;20378;-76
2023/05/26 03:07:45;;;;;;;12.13;10.40;;;14.80;99.90;;;;;;5042408;28;20045;-76
2023/05/26 03:10:12;;;;;;;13.13;11.07;;;14.80;99.90;;;;;;5041118;28;20047;-77
2023/05/26 03:12:40;;;;;;;13.15;10.75;;;14.90;99.90;;;;;;5059935;28;20049;-79
2023/05/26 03:15:08;;;;;;;11.95;9.60;;;15.00;99.90;;;;;;5056997;28;20072;-77
2023/05/26 03:17:36;;;;;;;11.32;9.23;;;15.10;99.90;;;;;;5039125;28;20112;-77
2023/05/26 03:20:04;;;;;;;14.25;9.68;;;15.20;99.90;;;;;;5057240;28;20040;-78
2023/05/26 03:22:31;;;;;;;15.38;10.38;;;15.20;99.90;;;;;;5057747;28;20051;-77
2023/05/26 03:25:00;;;;;;;11.70;9.57;;;15.30;99.90;;;;;;5040634;28;20052;-78
2023/05/26 03:27:39;;;;;;;13.35;10.35;;;15.40;99.90;;;;;;5058807;28;20106;-77
2023/05/26 03:30:07;;;;;;;12.52;10.48;;;15.40;99.90;;;;;;5055497;28;20033;-78
2023/05/26 03:32:35;;;;;;;14.80;10.60;;;15.40;99.90;;;;;;5064593;28;20061;-78
2023/05/26 03:35:03;;;;;;;11.73;9.43;;;15.50;99.90;;;;;;5040899;28;20103;-76
2023/05/26 03:37:31;;;;;;;13.88;9.68;;;15.40;99.90;;;;;;5065728;28;20047;-79
2023/05/26 03:40:00;;;;;;;11.18;9.15;;;15.50;99.90;;;;;;5039878;28;20045;-78
2023/05/26 03:42:31;;;;;;;11.95;8.65;;;15.50;99.90;;;;;;5039415;28;20037;-77
2023/05/26 03:44:58;;;;;;;15.25;9.65;;;15.50;99.90;;;;;;5039691;28;20132;-78
2023/05/26 03:47:26;;;;;;;13.25;9.05;;;15.50;99.90;;;;;;5056775;28;20076;-78
2023/05/26 03:49:53;;;;;;;12.38;8.45;;;15.50;99.90;;;;;;5041540;28;20190;-77
2023/05/26 03:52:21;;;;;;;10.23;9.00;;;15.50;99.90;;;;;;5059624;28;20159;-76
2023/05/26 03:54:48;;;;;;;12.25;9.40;;;15.50;99.90;;;;;;5040106;28;20189;-77
2023/05/26 03:57:17;;;;;;;14.20;9.50;;;15.50;99.90;;;;;;5057672;28;20094;-77
2023/05/26 03:59:46;;;;;;;13.48;9.93;;;15.50;99.90;;;;;;5059725;28;20037;-77
2023/05/26 04:02:14;;;;;;;13.82;9.70;;;15.50;99.90;;;;;;5062596;28;20049;-78
2023/05/26 04:04:41;;;;;;;16.98;10.55;;;15.50;99.90;;;;;;5061015;28;20051;-79
2023/05/26 04:07:09;;;;;;;14.07;10.25;;;15.60;99.90;;;;;;5058366;28;20046;-78
2023/05/26 04:09:37;;;;;;;21.45;11.57;;;15.60;99.90;;;;;;5039921;28;20503;-79
2023/05/26 04:12:05;;;;;;;14.65;10.50;;;15.70;99.90;;;;;;5041017;28;20136;-78
2023/05/26 04:14:34;;;;;;;15.80;10.00;;;15.70;99.90;;;;;;5040152;28;20059;-78
2023/05/26 04:17:02;;;;;;;16.42;10.30;;;15.80;99.90;;;;;;5039518;28;20516;-76
2023/05/26 04:19:29;;;;;;;20.88;10.82;;;15.80;99.90;;;;;;5039692;28;20520;-76
2023/05/26 04:21:57;;;;;;;16.02;10.35;;;15.80;99.90;;;;;;5050002;28;20136;-78
2023/05/26 04:24:26;;;;;;;38.65;14.35;;;15.80;99.90;;;;;;5033977;28;20136;-76
2023/05/26 04:26:54;;;;;;;63.30;20.38;;;15.80;99.90;;;;;;5036496;28;20045;-78
2023/05/26 04:29:48;;;;;;;24.65;11.27;;;15.90;99.90;;;;;;5031286;28;20045;-78
2023/05/26 04:32:36;;;;;;;27.80;11.93;;;15.90;99.90;;;;;;5016072;28;20064;-76
2023/05/26 04:35:24;;;;;;;30.58;13.02;;;15.90;99.90;;;;;;5030471;28;20604;-78
2023/05/26 04:37:53;;;;;;;45.22;15.23;;;15.90;99.90;;;;;;5048270;28;20054;-79
2023/05/26 04:40:20;;;;;;;39.35;15.27;;;16.00;99.90;;;;;;5045331;28;20587;-77
2023/05/26 04:42:49;;;;;;;48.42;15.95;;;16.00;99.90;;;;;;5043535;28;20575;-77
2023/05/26 04:45:18;;;;;;;52.20;16.42;;;16.00;99.90;;;;;;5022244;28;20874;-77
2023/05/26 04:47:50;;;;;;;50.25;16.65;;;16.00;99.90;;;;;;5041201;28;20650;-76
2023/05/26 04:50:22;;;;;;;53.67;16.70;;;16.00;99.90;;;;;;5042585;28;20103;-77
2023/05/26 04:52:50;;;;;;;74.65;21.40;;;16.00;99.90;;;;;;5021993;28;20041;-77
2023/05/26 04:55:18;;;;;;;64.75;21.33;;;16.00;99.90;;;;;;5025243;28;20132;-77
2023/05/26 04:57:46;;;;;;;80.97;23.38;;;16.00;99.90;;;;;;5034126;28;20042;-77
2023/05/26 05:00:14;;;;;;;87.88;25.90;;;16.00;99.90;;;;;;5020159;28;20072;-77
2023/05/26 05:02:45;;;;;;;86.88;26.13;;;16.00;99.90;;;;;;5040440;28;20450;-77
2023/05/26 05:05:19;;;;;;;85.03;24.20;;;16.10;99.90;;;;;;5041244;28;20143;-77
2023/05/26 05:07:50;;;;;;;70.85;23.45;;;16.10;99.90;;;;;;5025499;28;20072;-75
2023/05/26 05:10:18;;;;;;;90.10;27.67;;;16.10;99.90;;;;;;5040933;28;20060;-78
2023/05/26 05:12:46;;;;;;;100.85;29.40;;;16.10;99.90;;;;;;5035541;28;20140;-75
2023/05/26 05:15:15;;;;;;;103.75;29.85;;;16.10;99.90;;;;;;5022139;28;20065;-78
2023/05/26 05:17:43;;;;;;;102.63;32.17;;;16.10;99.90;;;;;;5041882;28;20111;-76
2023/05/26 05:20:13;;;;;;;106.82;32.22;;;16.10;99.90;;;;;;5039839;28;20049;-78
2023/05/26 05:22:41;;;;;;;113.35;34.30;;;16.10;99.90;;;;;;5035606;28;20049;-78
2023/05/26 05:25:10;;;;;;;113.88;34.50;;;16.20;99.90;;;;;;5021552;28;20077;-77
2023/05/26 05:27:37;;;;;;;118.93;34.33;;;16.10;99.90;;;;;;5044217;28;20500;-75
2023/05/26 05:30:06;;;;;;;130.77;44.35;;;16.10;99.90;;;;;;5021467;28;20048;-77
2023/05/26 05:32:34;;;;;;;123.28;40.22;;;16.10;99.90;;;;;;5024280;28;20052;-75
2023/05/26 05:35:01;;;;;;;129.63;37.45;;;16.10;99.90;;;;;;5035761;28;20039;-77
2023/05/26 05:37:30;;;;;;;130.70;38.60;;;16.10;99.90;;;;;;5024712;28;20057;-76
2023/05/26 05:39:58;;;;;;;131.05;37.30;;;16.20;99.90;;;;;;5041983;28;20041;-77
2023/05/26 05:42:25;;;;;;;133.88;40.08;;;16.10;99.90;;;;;;5028736;28;20049;-76
2023/05/26 05:44:53;;;;;;;137.35;41.28;;;16.20;99.90;;;;;;5023047;28;20041;-78
2023/05/26 05:47:34;;;;;;;145.77;44.40;;;16.20;99.90;;;;;;5020073;28;20041;-77
2023/05/26 05:50:07;;;;;;;156.45;44.22;;;16.10;99.90;;;;;;5028041;28;20104;-75
2023/05/26 05:52:37;;;;;;;138.45;41.67;;;16.10;99.90;;;;;;5043527;28;20041;-78
2023/05/26 05:55:06;;;;;;;130.05;37.67;;;16.10;99.90;;;;;;5044922;28;20447;-78
2023/05/26 05:57:34;;;;;;;88.68;29.80;;;16.10;99.90;;;;;;5021542;28;20069;-77
2023/05/26 06:00:02;;;;;;;50.92;24.40;;;16.10;99.90;;;;;;5027067;28;20472;-78
2023/05/26 06:02:40;;;;;;;65.85;27.17;;;16.10;99.90;;;;;;5036882;28;20045;-79
2023/05/26 06:05:09;;;;;;;59.53;26.65;;;16.00;99.90;;;;;;5043341;28;20074;-75
2023/05/26 06:07:38;;;;;;;42.40;23.38;;;16.00;99.90;;;;;;5000793;28;20058;-75
2023/05/26 06:10:09;;;;;;;36.70;20.63;;;15.90;99.90;;;;;;5014429;28;20040;-76
2023/05/26 06:12:36;;;;;;;32.00;19.02;;;16.00;99.90;;;;;;5032884;28;20589;-76
2023/05/26 06:15:04;;;;;;;39.92;21.65;;;16.00;99.90;;;;;;5001600;28;20130;-76
2023/05/26 06:17:33;;;;;;;66.75;28.73;;;16.10;99.90;;;;;;5009500;28;20042;-75
2023/05/26 06:20:00;;;;;;;61.60;26.80;;;16.00;99.90;;;;;;5011510;28;20397;-77
2023/05/26 06:22:27;;;;;;;68.40;27.30;;;16.00;99.90;;;;;;5016795;28;20053;-77
2023/05/26 06:24:57;;;;;;;87.65;30.55;;;16.00;99.90;;;;;;5020193;28;20120;-76
2023/05/26 06:27:26;;;;;;;87.75;30.00;;;15.90;99.90;;;;;;5026585;28;20555;-74
2023/05/26 06:29:54;;;;;;;71.72;27.30;;;15.70;99.90;;;;;;5026869;28;20037;-78
2023/05/26 06:32:22;;;;;;;85.53;29.45;;;15.60;99.90;;;;;;5025844;28;20942;-77
2023/05/26 06:34:50;;;;;;;100.45;31.48;;;15.50;99.90;;;;;;5042859;28;20139;-77
2023/05/26 06:37:19;;;;;;;134.43;35.90;;;15.50;99.90;;;;;;5037311;28;20042;-77
2023/05/26 06:39:46;;;;;;;90.15;30.42;;;15.50;99.90;;;;;;5041041;28;20164;-77
2023/05/26 06:42:21;;;;;;;56.72;26.38;;;15.40;99.90;;;;;;5030015;28;20038;-76
2023/05/26 06:44:49;;;;;;;89.32;35.58;;;15.40;99.90;;;;;;5003839;28;20124;-77
2023/05/26 06:47:19;;;;;;;77.03;31.50;;;15.40;99.90;;;;;;5001690;28;20080;-75
2023/05/26 06:49:48;;;;;;;86.97;35.97;;;15.30;99.90;;;;;;5018339;28;20038;-78
2023/05/26 06:52:19;;;;;;;90.05;34.92;;;15.30;99.90;;;;;;5008890;28;20061;-77
2023/05/26 06:54:46;;;;;;;93.22;39.08;;;15.40;99.90;;;;;;5028254;28;20045;-77
2023/05/26 06:57:14;;;;;;;110.63;45.53;;;15.40;99.90;;;;;;5010984;28;20042;-74
2023/05/26 06:59:44;;;;;;;90.20;38.30;;;15.60;99.90;;;;;;5026287;28;20117;-76
2023/05/26 07:02:11;;;;;;;82.15;36.28;;;15.50;99.90;;;;;;5028538;28;20099;-76
2023/05/26 07:04:39;;;;;;;85.18;33.72;;;15.50;99.90;;;;;;5012187;28;20436;-74
2023/05/26 07:07:06;;;;;;;77.63;33.00;;;15.40;99.90;;;;;;5012094;28;20111;-75
2023/05/26 07:09:34;;;;;;;78.70;32.85;;;15.40;99.90;;;;;;5028291;28;20088;-75
2023/05/26 07:12:02;;;;;;;76.05;34.78;;;15.40;99.90;;;;;;5023545;28;20041;-75
2023/05/26 07:15:01;;;;;;;84.55;38.53;;;15.50;99.90;;;;;;5003504;28;20119;-75
2023/05/26 07:17:30;;;;;;;89.43;43.00;;;15.70;99.90;;;;;;5012097;28;20042;-75
2023/05/26 07:19:58;;;;;;;80.43;36.47;;;15.80;99.90;;;;;;5011053;28;20051;-75
2023/05/26 07:22:26;;;;;;;60.17;35.00;;;15.80;99.90;;;;;;5010619;28;20409;-77
2023/05/26 07:25:10;;;;;;;71.10;33.53;;;15.90;99.90;;;;;;5010273;28;20136;-78
2023/05/26 07:27:45;;;;;;;57.33;32.30;;;15.90;99.90;;;;;;5009967;28;20045;-76
2023/05/26 07:30:15;;;;;;;73.13;65.13;;;16.00;99.90;;;;;;5009124;28;20130;-75
2023/05/26 07:33:01;;;;;;;75.28;56.55;;;16.00;99.90;;;;;;5030712;28;20175;-78
2023/05/26 07:35:28;;;;;;;84.72;60.90;;;16.00;99.90;;;;;;5011351;28;20292;-77
2023/05/26 07:37:56;;;;;;;75.13;58.17;;;16.20;99.90;;;;;;5011450;28;20489;-76
2023/05/26 07:40:24;;;;;;;105.72;94.28;;;16.20;99.90;;;;;;5026694;28;20054;-78
2023/05/26 07:42:51;;;;;;;125.18;113.70;;;16.30;99.90;;;;;;5028128;28;20336;-75
2023/05/26 07:45:20;;;;;;;323.38;302.73;;;16.30;99.90;;;;;;5010327;28;20045;-76
2023/05/26 07:47:48;;;;;;;77.18;55.72;;;16.30;99.90;;;;;;5027861;28;20037;-76
2023/05/26 07:50:15;;;;;;;297.20;278.33;;;16.20;99.90;;;;;;5028389;28;20083;-78
2023/05/26 07:52:42;;;;;;;75.50;65.22;;;16.30;99.90;;;;;;5040592;28;20165;-76
2023/05/26 07:55:10;;;;;;;87.53;76.20;;;16.20;99.90;;;;;;5044633;28;20053;-75
2023/05/26 07:57:37;;;;;;;157.70;145.63;;;16.20;99.90;;;;;;5029245;28;20537;-76
2023/05/26 08:00:06;;;;;;;151.85;140.30;;;16.30;99.90;;;;;;5027437;28;20136;-77
2023/05/26 08:02:42;;;;;;;249.10;232.93;;;16.30;99.90;;;;;;5027291;28;20045;-76
2023/05/26 08:05:09;;;;;;;105.15;96.70;;;16.30;99.90;;;;;;5010712;28;20049;-76
2023/05/26 08:07:37;;;;;;;104.20;94.80;;;16.30;99.90;;;;;;5017301;28;20414;-74
2023/05/26 08:10:05;;;;;;;232.57;217.57;;;16.20;99.90;;;;;;5019396;28;20585;-77
2023/05/26 08:12:32;;;;;;;251.02;235.40;;;16.10;99.90;;;;;;5013164;28;20050;-76
2023/05/26 08:15:00;;;;;;;461.35;435.65;;;16.10;99.90;;;;;;5008622;28;20547;-78
2023/05/26 08:17:27;;;;;;;326.98;306.90;;;16.10;99.90;;;;;;5010168;28;20045;-80
2023/05/26 08:19:56;;;;;;;401.65;377.00;;;16.10;99.90;;;;;;5023496;28;20107;-76
2023/05/26 08:22:23;;;;;;;185.85;172.82;;;16.10;99.90;;;;;;5019962;28;20049;-77
2023/05/26 08:24:51;;;;;;;184.40;170.85;;;16.00;99.90;;;;;;5024687;28;20142;-77
2023/05/26 08:27:18;;;;;;;165.60;152.77;;;16.00;99.90;;;;;;5013677;28;20137;-78
2023/05/26 08:29:46;;;;;;;68.93;55.45;;;16.00;99.90;;;;;;4996046;28;20103;-78
2023/05/26 08:32:14;;;;;;;212.55;197.13;;;16.00;99.90;;;;;;5025789;28;20049;-78
2023/05/26 08:34:44;;;;;;;609.47;574.25;;;16.20;99.90;;;;;;5040112;28;20231;-79
2023/05/26 08:37:14;;;;;;;966.08;898.67;;;16.60;99.90;;;;;;5040495;28;20057;-76
2023/05/26 08:39:45;;;;;;;810.22;753.05;;;17.00;99.90;;;;;;5039375;28;20061;-75
2023/05/26 08:42:15;;;;;;;1020.42;937.35;;;17.50;99.90;;;;;;5026637;28;20074;-74
2023/05/26 08:44:45;;;;;;;848.50;775.97;;;18.00;99.90;;;;;;5043102;28;20045;-75
2023/05/26 08:47:13;;;;;;;649.70;599.92;;;18.60;99.90;;;;;;5053225;28;20050;-75
2023/05/26 08:49:45;;;;;;;545.33;504.33;;;18.80;99.90;;;;;;5044877;28;20052;-76
2023/05/26 08:52:16;;;;;;;546.70;517.17;;;18.70;99.90;;;;;;5045160;28;20037;-75
2023/05/26 08:54:44;;;;;;;155.73;146.68;;;19.00;99.90;;;;;;5043906;28;20037;-75
2023/05/26 08:57:13;;;;;;;33.97;30.38;;;18.90;99.90;;;;;;5043474;28;20123;-76
2023/05/26 08:59:41;;;;;;;28.83;23.73;;;19.20;99.90;;;;;;5016821;28;20039;-76
2023/05/26 09:02:10;;;;;;;41.50;37.75;;;19.60;99.90;;;;;;5036322;28;20115;-76
2023/05/26 09:04:37;;;;;;;28.10;25.08;;;19.60;99.90;;;;;;5016460;28;20046;-76
2023/05/26 09:07:07;;;;;;;38.45;35.17;;;19.50;99.90;;;;;;5038493;28;20505;-76
2023/05/26 09:09:36;;;;;;;37.83;34.22;;;19.70;99.90;;;;;;5036723;28;20049;-76
2023/05/26 09:12:09;;;;;;;41.53;37.55;;;20.00;99.90;;;;;;5037019;28;20499;-76
2023/05/26 09:14:37;;;;;;;47.75;42.90;;;20.00;99.90;;;;;;5034952;28;20046;-75
2023/05/26 09:17:05;;;;;;;38.47;30.65;;;20.10;99.90;;;;;;5022428;28;20042;-77
2023/05/26 09:19:34;;;;;;;31.90;25.65;;;20.60;99.90;;;;;;5019346;28;20073;-76
2023/05/26 09:22:08;;;;;;;25.33;22.08;;;20.80;99.90;;;;;;5041944;28;20058;-77
2023/05/26 09:24:46;;;;;;;30.05;24.77;;;21.00;99.90;;;;;;5058802;28;20057;-76
2023/05/26 09:27:22;;;;;;;21.58;18.23;;;21.20;99.90;;;;;;5057009;28;20072;-76
2023/05/26 09:29:51;;;;;;;21.77;18.65;;;21.40;99.90;;;;;;5057305;28;20068;-77
2023/05/26 09:32:18;;;;;;;20.05;17.48;;;21.60;99.90;;;;;;5059529;28;20098;-76
2023/05/26 09:34:46;;;;;;;23.13;19.15;;;21.60;99.90;;;;;;5060964;28;20043;-76
2023/05/26 09:37:13;;;;;;;18.40;16.13;;;21.50;99.90;;;;;;5059154;28;20052;-75
2023/05/26 09:39:40;;;;;;;21.08;17.65;;;21.10;99.90;;;;;;5059012;28;20500;-75
2023/05/26 09:42:10;;;;;;;24.92;19.73;;;20.80;99.90;;;;;;5059178;28;20040;-76
2023/05/26 09:44:38;;;;;;;21.13;18.45;;;20.60;99.90;;;;;;5058498;28;20116;-75
2023/05/26 09:47:07;;;;;;;16.50;14.13;;;20.30;99.90;;;;;;5059457;28;20033;-77
2023/05/26 09:49:37;;;;;;;17.75;12.98;;;19.90;99.90;;;;;;5059992;28;20080;-76
2023/05/26 09:52:05;;;;;;;18.50;11.50;;;19.70;99.90;;;;;;5058521;28;20106;-78
2023/05/26 09:54:32;;;;;;;14.13;10.80;;;19.80;99.90;;;;;;5056590;28;20515;-76
2023/05/26 09:57:02;;;;;;;15.23;12.10;;;20.00;99.90;;;;;;5057735;28;20139;-74
2023/05/26 09:59:37;;;;;;;14.50;11.23;;;20.10;99.90;;;;;;5056012;28;20040;-75
2023/05/26 10:02:18;;;;;;;12.30;9.27;;;20.40;99.90;;;;;;5059261;28;20041;-76
2023/05/26 10:04:47;;;;;;;12.50;9.88;;;20.70;99.90;;;;;;5041472;28;20549;-76
2023/05/26 10:07:18;;;;;;;14.10;11.25;;;20.80;99.90;;;;;;5056635;28;20611;-74
2023/05/26 10:09:49;;;;;;;19.17;11.18;;;21.40;99.90;;;;;;5056849;28;20048;-74
2023/05/26 10:12:18;;;;;;;14.93;10.68;;;21.80;99.90;;;;;;5057722;28;20056;-75
2023/05/26 10:14:47;;;;;;;13.02;10.00;;;21.70;99.90;;;;;;5058007;28;20095;-76
2023/05/26 10:17:15;;;;;;;13.32;10.10;;;21.80;99.90;;;;;;5057947;28;20063;-77
2023/05/26 10:19:43;;;;;;;15.23;10.45;;;21.80;99.90;;;;;;5057219;28;20071;-75
2023/05/26 10:22:19;;;;;;;10.60;8.95;;;22.30;99.90;;;;;;5038762;28;20060;-80
2023/05/26 10:24:56;;;;;;;12.30;9.95;;;22.80;99.90;;;;;;5049940;28;20052;-75
2023/05/26 10:27:40;;;;;;;15.93;11.15;;;23.40;99.90;;;;;;5048103;28;20044;-79
2023/05/26 10:30:17;;;;;;;13.27;9.50;;;23.40;99.90;;;;;;5049405;28;20041;-83
2023/05/26 10:32:56;;;;;;;12.00;9.25;;;23.30;99.90;;;;;;5050104;28;20045;-77
2023/05/26 10:35:30;;;;;;;14.80;10.75;;;23.30;99.90;;;;;;5040646;28;20055;-81
2023/05/26 10:38:14;;;;;;;14.43;9.63;;;23.30;99.90;;;;;;5050106;28;20066;-82
2023/05/26 10:40:45;;;;;;;13.38;9.27;;;23.10;99.90;;;;;;5047906;28;20045;-77
2023/05/26 10:43:15;;;;;;;15.75;10.82;;;22.80;99.90;;;;;;5049800;28;20049;-79
2023/05/26 10:45:51;;;;;;;13.10;10.00;;;22.70;99.90;;;;;;5048528;28;20132;-78
2023/05/26 10:48:19;;;;;;;38.03;29.05;;;22.30;99.90;;;;;;5048284;28;20040;-78
2023/05/26 10:51:05;;;;;;;14.57;9.70;;;22.10;99.90;;;;;;5049023;28;20043;-77
2023/05/26 10:53:35;;;;;;;31.05;23.05;;;22.20;99.90;;;;;;5047716;28;20051;-79
2023/05/26 10:56:04;;;;;;;22.00;15.68;;;22.10;99.90;;;;;;5048870;28;20062;-77
2023/05/26 10:58:33;;;;;;;16.75;12.88;;;22.00;99.90;;;;;;5047864;28;20037;-77
2023/05/26 11:01:03;;;;;;;17.10;12.73;;;21.90;99.90;;;;;;5048068;28;20045;-77
2023/05/26 11:03:35;;;;;;;18.08;12.68;;;21.70;99.90;;;;;;5047967;28;20044;-78
2023/05/26 11:06:03;;;;;;;20.23;14.75;;;21.40;99.90;;;;;;5048620;28;20045;-77
2023/05/26 11:08:38;;;;;;;22.42;14.02;;;21.30;99.90;;;;;;5047635;28;20099;-78
2023/05/26 11:11:08;;;;;;;14.82;11.10;;;21.10;99.90;;;;;;5049583;28;20045;-78
2023/05/26 11:13:46;;;;;;;17.70;12.25;;;21.00;99.90;;;;;;5050735;28;20049;-78
2023/05/26 11:16:24;;;;;;;14.82;12.25;;;20.80;99.90;;;;;;5057407;28;20453;-78
2023/05/26 11:18:54;;;;;;;18.23;12.80;;;20.80;99.90;;;;;;5055391;28;20491;-75
2023/05/26 11:21:25;;;;;;;18.47;14.77;;;20.70;99.90;;;;;;5003630;28;1223196;-77
2023/05/26 11:23:57;;;;;;;16.23;13.10;;;20.60;99.90;;;;;;5049447;28;20057;-77
2023/05/26 11:26:27;;;;;;;19.95;14.20;;;20.30;99.90;;;;;;5050407;28;20065;-77
2023/05/26 11:28:55;;;;;;;16.98;13.25;;;20.20;99.90;;;;;;5050313;28;20151;-77
2023/05/26 11:31:26;;;;;;;17.23;12.95;;;20.20;99.90;;;;;;5050624;28;20041;-79
2023/05/26 11:33:54;;;;;;;17.30;13.73;;;20.30;99.90;;;;;;5046439;28;20053;-78
2023/05/26 11:36:22;;;;;;;15.77;12.93;;;20.30;99.90;;;;;;5049688;28;20044;-77
2023/05/26 11:38:54;;;;;;;15.65;12.25;;;20.40;99.90;;;;;;5030991;28;20543;-78
2023/05/26 11:41:25;;;;;;;25.23;15.85;;;20.40;99.90;;;;;;5058967;28;20109;-77
2023/05/26 11:43:54;;;;;;;18.17;13.88;;;20.50;99.90;;;;;;5058058;28;20045;-78
2023/05/26 11:46:26;;;;;;;16.98;13.25;;;20.60;99.90;;;;;;5052416;28;20037;-76
2023/05/26 11:48:54;;;;;;;17.02;13.30;;;20.80;99.90;;;;;;5047698;28;20048;-76
2023/05/26 11:51:22;;;;;;;15.40;11.13;;;20.90;99.90;;;;;;5029231;28;20051;-78
2023/05/26 11:53:55;;;;;;;18.85;11.75;;;21.10;99.90;;;;;;5049254;28;20037;-77
2023/05/26 11:56:22;;;;;;;16.40;11.30;;;21.20;99.90;;;;;;5035596;28;20044;-79
2023/05/26 11:58:56;;;;;;;19.20;13.55;;;21.40;99.90;;;;;;5059490;28;20047;-76
2023/05/26 12:01:26;;;;;;;22.58;13.15;;;21.50;99.90;;;;;;5059422;28;20045;-78
2023/05/26 12:03:56;;;;;;;15.02;11.95;;;21.40;99.90;;;;;;5054559;28;20521;-77
2023/05/26 12:06:26;;;;;;;15.15;12.13;;;21.30;99.90;;;;;;5048398;28;20040;-78
2023/05/26 12:08:55;;;;;;;18.65;11.98;;;21.30;99.90;;;;;;5048591;28;20061;-78
2023/05/26 12:11:25;;;;;;;17.50;12.10;;;21.30;99.90;;;;;;5048874;28;20489;-77
2023/05/26 12:13:58;;;;;;;13.80;11.15;;;21.20;99.90;;;;;;5049250;28;20098;-78
2023/05/26 12:16:30;;;;;;;15.00;11.75;;;21.10;99.90;;;;;;5048041;28;20041;-76
2023/05/26 12:18:59;;;;;;;19.90;13.68;;;21.10;99.90;;;;;;5048449;28;20041;-77
2023/05/26 12:21:28;;;;;;;18.17;13.00;;;21.20;99.90;;;;;;5046129;28;20098;-79
2023/05/26 12:23:57;;;;;;;15.05;12.25;;;21.30;99.90;;;;;;5047585;28;20086;-77
2023/05/26 12:26:27;;;;;;;20.05;13.20;;;21.60;99.90;;;;;;5047343;28;20048;-77
2023/05/26 12:29:09;;;;;;;17.60;13.85;;;21.90;99.90;;;;;;5048212;28;20103;-78
2023/05/26 12:31:42;;;;;;;23.67;15.77;;;22.10;99.90;;;;;;5047818;28;20077;-76
2023/05/26 12:34:11;;;;;;;16.08;12.90;;;22.20;99.90;;;;;;5046909;28;20049;-78
2023/05/26 12:36:39;;;;;;;21.50;15.35;;;22.40;99.90;;;;;;5029352;28;20037;-76
2023/05/26 12:39:07;;;;;;;20.90;14.43;;;22.20;99.90;;;;;;5047374;28;20051;-77
2023/05/26 12:41:35;;;;;;;22.33;15.70;;;22.00;99.90;;;;;;5029916;28;20480;-78